Time;durP1;ratioP1;P1;durP2;ratioP2;P2;SDS_P1;SDS_P2;PMS_P1;PMS_P2;Temp;Humidity;BMP_temperature;BMP_pressure;BME280_temperature;BME280_humidity;BME280_pressure;Samples;Min_cycle;Max_cycle;Signal;HPM_P1;HPM_P2
2023/05/18 00:02:03;;;;;;;9.27;3.55;;;;;;;;;;5014063;28;20426;-88
2023/05/18 00:04:33;;;;;;;10.13;3.85;;;;;;;;;;5014234;28;20494;-88
2023/05/18 00:07:02;;;;;;;9.33;3.73;;;;;;;;;;4997623;28;20423;-88
2023/05/18 00:09:30;;;;;;;10.68;3.55;;;;;;;;;;4997779;28;20419;-88
2023/05/18 00:11:56;;;;;;;11.07;3.95;;;;;;;;;;4997759;28;20451;-88
2023/05/18 00:14:22;;;;;;;9.35;3.58;;;;;;;;;;4997534;28;20427;-88
2023/05/18 00:16:48;;;;;;;9.18;3.85;;;;;;;;;;4997852;28;20431;-89
2023/05/18 00:19:15;;;;;;;8.02;3.58;;;;;;;;;;4997560;28;20427;-88
2023/05/18 00:21:47;;;;;;;11.35;3.92;;;;;;;;;;4997597;28;20411;-89
2023/05/18 00:24:14;;;;;;;10.38;3.50;;;;;;;;;;4978148;28;20413;-89
2023/05/18 00:26:40;;;;;;;9.52;3.80;;;;;;;;;;4994575;28;20433;-88
2023/05/18 00:29:07;;;;;;;9.35;3.90;;;;;;;;;;4994480;28;20551;-89
2023/05/18 00:31:35;;;;;;;9.82;4.05;;;;;;;;;;4996690;28;20443;-88
2023/05/18 00:34:02;;;;;;;10.82;4.00;;;;;;;;;;4997427;28;20415;-82
2023/05/18 00:36:28;;;;;;;8.60;3.70;;;;;;;;;;4997359;28;20418;-82
2023/05/18 00:38:54;;;;;;;9.00;4.22;;;;;;;;;;4999951;28;20404;-81
2023/05/18 00:41:20;;;;;;;9.65;3.60;;;;;;;;;;5033108;28;20397;-81
2023/05/18 00:43:46;;;;;;;9.75;4.03;;;;;;;;;;5000279;28;20408;-81
2023/05/18 00:46:13;;;;;;;10.53;3.73;;;;;;;;;;5000633;28;20420;-81
2023/05/18 00:48:39;;;;;;;10.75;4.03;;;;;;;;;;5033154;28;20414;-82
2023/05/18 00:51:05;;;;;;;11.75;4.30;;;;;;;;;;5016460;28;20463;-89
2023/05/18 00:53:32;;;;;;;10.52;3.85;;;;;;;;;;5016986;28;20516;-87
2023/05/18 00:55:58;;;;;;;9.27;3.70;;;;;;;;;;5018781;28;20495;-88
2023/05/18 00:58:25;;;;;;;7.80;3.97;;;;;;;;;;5020986;28;20464;-89
2023/05/18 01:00:52;;;;;;;8.65;3.78;;;;;;;;;;5000825;28;20410;-88
2023/05/18 01:03:20;;;;;;;8.33;3.63;;;;;;;;;;5034793;28;20223;-88
2023/05/18 01:05:54;;;;;;;10.93;3.95;;;;;;;;;;5017457;28;20428;-89
2023/05/18 01:08:20;;;;;;;9.93;3.67;;;;;;;;;;5018466;28;20176;-80
2023/05/18 01:10:50;;;;;;;9.93;3.90;;;;;;;;;;5016394;28;20409;-80
2023/05/18 01:13:20;;;;;;;12.32;3.92;;;;;;;;;;5032263;28;20402;-80
2023/05/18 01:15:48;;;;;;;8.80;3.70;;;;;;;;;;5032752;28;20459;-80
2023/05/18 01:18:35;;;;;;;10.20;4.27;;;;;;;;;;5033279;28;20239;-80
2023/05/18 01:21:20;;;;;;;8.95;3.90;;;;;;;;;;5016124;28;20449;-80
2023/05/18 01:24:03;;;;;;;9.45;4.20;;;;;;;;;;5033233;28;20401;-80
2023/05/18 01:26:31;;;;;;;9.53;3.80;;;;;;;;;;5033659;28;20404;-80
2023/05/18 01:28:58;;;;;;;11.38;4.45;;;;;;;;;;5032448;28;20397;-80
2023/05/18 01:31:25;;;;;;;9.52;4.20;;;;;;;;;;5031743;28;20437;-80
2023/05/18 01:33:51;;;;;;;10.10;3.97;;;;;;;;;;5016316;28;20481;-80
2023/05/18 01:36:17;;;;;;;13.10;4.40;;;;;;;;;;4999270;28;20410;-80
2023/05/18 01:38:44;;;;;;;11.38;4.10;;;;;;;;;;4999397;28;20429;-80
2023/05/18 01:41:13;;;;;;;10.07;4.22;;;;;;;;;;5015473;28;20428;-81
2023/05/18 01:43:45;;;;;;;10.35;4.13;;;;;;;;;;5004421;28;20415;-81
2023/05/18 01:46:14;;;;;;;9.83;3.70;;;;;;;;;;4996835;28;20216;-81
2023/05/18 01:48:43;;;;;;;9.50;3.97;;;;;;;;;;5012934;28;20421;-82
2023/05/18 01:51:11;;;;;;;8.27;3.97;;;;;;;;;;5033897;28;20235;-82
2023/05/18 01:53:52;;;;;;;8.88;4.15;;;;;;;;;;5032422;28;20419;-82
2023/05/18 01:56:20;;;;;;;8.60;3.60;;;;;;;;;;5016424;28;20181;-82
2023/05/18 01:58:47;;;;;;;9.50;4.22;;;;;;;;;;4999704;28;20519;-77
2023/05/18 02:01:14;;;;;;;10.75;4.38;;;;;;;;;;5029298;28;20419;-77
2023/05/18 02:03:42;;;;;;;13.00;4.38;;;;;;;;;;5022694;28;20428;-78
2023/05/18 02:06:08;;;;;;;13.52;4.40;;;;;;;;;;5033822;28;20478;-77
2023/05/18 02:08:34;;;;;;;8.90;4.28;;;;;;;;;;5018131;28;20451;-77
2023/05/18 02:11:00;;;;;;;10.38;4.38;;;;;;;;;;5029841;28;20484;-77
2023/05/18 02:13:26;;;;;;;10.98;4.47;;;;;;;;;;4999257;28;20501;-79
2023/05/18 02:15:52;;;;;;;11.95;4.32;;;;;;;;;;4998836;28;20413;-77
2023/05/18 02:18:20;;;;;;;8.68;4.38;;;;;;;;;;5014979;28;20483;-77
2023/05/18 02:20:48;;;;;;;9.55;4.43;;;;;;;;;;5016036;28;20414;-77
2023/05/18 02:23:14;;;;;;;10.77;4.20;;;;;;;;;;4999424;28;20413;-77
2023/05/18 02:25:43;;;;;;;10.85;4.53;;;;;;;;;;5001735;28;20436;-77
2023/05/18 02:28:09;;;;;;;10.57;4.40;;;;;;;;;;5020182;28;20413;-77
2023/05/18 02:30:35;;;;;;;11.15;4.50;;;;;;;;;;5012625;28;20454;-89
2023/05/18 02:33:03;;;;;;;10.75;4.10;;;;;;;;;;5006934;28;20516;-89
2023/05/18 02:35:29;;;;;;;10.00;3.83;;;;;;;;;;5002918;28;20240;-89
2023/05/18 02:37:57;;;;;;;7.97;4.10;;;;;;;;;;5002034;28;20197;-89
2023/05/18 02:40:23;;;;;;;11.23;4.57;;;;;;;;;;5002092;28;20417;-86
2023/05/18 02:42:49;;;;;;;12.20;4.63;;;;;;;;;;5004125;28;20410;-89
2023/05/18 02:45:15;;;;;;;9.80;4.40;;;;;;;;;;5032982;28;20401;-89
2023/05/18 02:47:42;;;;;;;8.88;4.63;;;;;;;;;;5018115;28;20414;-82
2023/05/18 02:50:09;;;;;;;9.50;4.40;;;;;;;;;;5001419;28;20421;-82
2023/05/18 02:52:35;;;;;;;9.60;3.93;;;;;;;;;;5000590;28;20209;-82
2023/05/18 02:55:01;;;;;;;8.33;3.93;;;;;;;;;;5020139;28;20177;-83
2023/05/18 02:57:27;;;;;;;11.67;4.20;;;;;;;;;;5003999;28;20253;-82
2023/05/18 02:59:53;;;;;;;7.73;4.07;;;;;;;;;;5000224;28;20244;-82
2023/05/18 03:02:21;;;;;;;10.27;4.13;;;;;;;;;;4994530;28;20214;-82
2023/05/18 03:04:52;;;;;;;13.20;4.60;;;;;;;;;;5003521;28;20173;-89
2023/05/18 03:07:19;;;;;;;12.00;4.23;;;;;;;;;;5013443;28;20187;-89
2023/05/18 03:09:45;;;;;;;10.93;4.47;;;;;;;;;;5006688;28;20491;-89
2023/05/18 03:12:11;;;;;;;10.03;4.33;;;;;;;;;;5009741;28;20451;-89
2023/05/18 03:14:37;;;;;;;7.80;3.77;;;;;;;;;;5000222;28;20272;-89
2023/05/18 03:17:04;;;;;;;10.38;4.32;;;;;;;;;;5002518;28;20520;-89
2023/05/18 03:19:34;;;;;;;10.23;4.90;;;;;;;;;;5000185;28;20409;-88
2023/05/18 03:22:00;;;;;;;12.20;4.90;;;;;;;;;;5015557;28;20418;-89
2023/05/18 03:24:29;;;;;;;11.75;4.88;;;;;;;;;;5015115;28;20407;-88
2023/05/18 03:26:55;;;;;;;9.95;4.50;;;;;;;;;;4999687;28;20423;-89
2023/05/18 03:29:22;;;;;;;12.15;4.88;;;;;;;;;;5001969;28;20473;-89
2023/05/18 03:31:48;;;;;;;11.52;4.55;;;;;;;;;;5034795;28;20490;-89
2023/05/18 03:34:14;;;;;;;11.07;4.50;;;;;;;;;;5035010;28;20436;-88
2023/05/18 03:36:41;;;;;;;9.00;4.45;;;;;;;;;;5001414;28;20437;-90
2023/05/18 03:39:07;;;;;;;10.13;4.20;;;;;;;;;;5035562;28;20414;-90
2023/05/18 03:41:33;;;;;;;13.80;4.70;;;;;;;;;;5035596;28;20424;-89
2023/05/18 03:43:59;;;;;;;12.18;4.97;;;;;;;;;;5017256;28;20431;-89
2023/05/18 03:46:26;;;;;;;11.48;4.70;;;;;;;;;;5017740;28;20477;-89
2023/05/18 03:48:53;;;;;;;11.25;4.60;;;;;;;;;;5002004;28;20406;-89
2023/05/18 03:51:19;;;;;;;12.63;4.60;;;;;;;;;;5001802;28;20471;-89
2023/05/18 03:53:45;;;;;;;12.32;4.78;;;;;;;;;;5034668;28;20438;-89
2023/05/18 03:56:12;;;;;;;10.50;4.20;;;;;;;;;;5001440;28;20490;-89
2023/05/18 03:58:38;;;;;;;10.25;4.55;;;;;;;;;;5001335;28;20425;-89
2023/05/18 04:01:04;;;;;;;12.38;4.60;;;;;;;;;;5032474;28;20489;-89
2023/05/18 04:03:33;;;;;;;11.27;4.70;;;;;;;;;;5001531;28;20405;-89
2023/05/18 04:05:59;;;;;;;13.52;5.10;;;;;;;;;;5034493;28;20410;-90
2023/05/18 04:08:25;;;;;;;11.30;4.70;;;;;;;;;;5017806;28;20409;-89
2023/05/18 04:10:51;;;;;;;11.20;4.80;;;;;;;;;;5017767;28;20417;-83
2023/05/18 04:13:17;;;;;;;9.50;4.43;;;;;;;;;;5034860;28;20409;-82
2023/05/18 04:15:43;;;;;;;9.38;4.35;;;;;;;;;;5017596;28;20432;-82
2023/05/18 04:18:10;;;;;;;11.50;4.63;;;;;;;;;;5015978;28;20425;-82
2023/05/18 04:20:36;;;;;;;12.57;4.90;;;;;;;;;;5012381;28;20435;-82
2023/05/18 04:23:04;;;;;;;13.85;4.40;;;;;;;;;;5006914;28;20432;-82
2023/05/18 04:25:30;;;;;;;11.90;4.63;;;;;;;;;;5036525;28;20412;-82
2023/05/18 04:27:56;;;;;;;12.05;4.53;;;;;;;;;;5033249;28;20432;-89
2023/05/18 04:30:22;;;;;;;12.73;4.50;;;;;;;;;;5016507;28;20431;-89
2023/05/18 04:32:49;;;;;;;12.03;4.27;;;;;;;;;;5016967;28;20192;-89
2023/05/18 04:35:15;;;;;;;9.90;3.90;;;;;;;;;;5001692;28;20191;-89
2023/05/18 04:37:41;;;;;;;12.80;4.30;;;;;;;;;;5017488;28;20200;-89
2023/05/18 04:40:15;;;;;;;10.73;4.50;;;;;;;;;;5032042;28;20455;-87
2023/05/18 04:42:44;;;;;;;10.63;4.22;;;;;;;;;;4996695;28;20522;-88
2023/05/18 04:45:18;;;;;;;11.63;4.38;;;;;;;;;;5000646;28;20424;-78
2023/05/18 04:47:51;;;;;;;11.85;4.20;;;;;;;;;;4995871;28;20424;-78
2023/05/18 04:50:18;;;;;;;11.55;3.72;;;;;;;;;;5032939;28;20425;-78
2023/05/18 04:52:47;;;;;;;11.63;4.20;;;;;;;;;;5016552;28;20406;-79
2023/05/18 04:55:21;;;;;;;13.27;4.10;;;;;;;;;;5016236;28;20406;-78
2023/05/18 04:57:47;;;;;;;12.95;4.15;;;;;;;;;;5032805;28;20460;-78
2023/05/18 05:00:14;;;;;;;10.65;4.07;;;;;;;;;;5000203;28;20437;-78
2023/05/18 05:02:40;;;;;;;10.83;3.80;;;;;;;;;;5033173;28;20440;-89
2023/05/18 05:05:07;;;;;;;10.07;4.20;;;;;;;;;;5000301;28;20488;-88
2023/05/18 05:07:33;;;;;;;9.90;3.55;;;;;;;;;;5033321;28;20409;-89
2023/05/18 05:09:59;;;;;;;12.57;4.07;;;;;;;;;;4999935;28;20451;-89
2023/05/18 05:12:25;;;;;;;9.60;3.57;;;;;;;;;;5001031;28;20188;-90
2023/05/18 05:14:51;;;;;;;7.50;3.57;;;;;;;;;;5000931;28;20184;-89
2023/05/18 05:17:17;;;;;;;13.13;3.57;;;;;;;;;;5034004;28;20204;-79
2023/05/18 05:19:43;;;;;;;10.00;3.43;;;;;;;;;;5000544;28;20181;-78
2023/05/18 05:22:09;;;;;;;11.80;3.67;;;;;;;;;;5000465;28;20212;-78
2023/05/18 05:24:35;;;;;;;11.17;3.23;;;;;;;;;;5000749;28;20208;-78
2023/05/18 05:27:01;;;;;;;8.83;3.30;;;;;;;;;;5000295;28;20243;-79
2023/05/18 05:29:27;;;;;;;14.88;3.70;;;;;;;;;;5000066;28;20418;-81
2023/05/18 05:31:53;;;;;;;8.70;3.20;;;;;;;;;;4986281;28;20232;-81
2023/05/18 05:34:19;;;;;;;10.40;3.03;;;;;;;;;;5013413;28;20197;-78
2023/05/18 05:36:45;;;;;;;9.18;3.45;;;;;;;;;;5012812;28;20442;-78
2023/05/18 05:39:12;;;;;;;10.90;3.58;;;;;;;;;;4994062;28;20501;-79
2023/05/18 05:41:38;;;;;;;12.15;3.63;;;;;;;;;;5009078;28;20399;-78
2023/05/18 05:44:04;;;;;;;14.48;4.03;;;;;;;;;;5008813;28;20414;-78
2023/05/18 05:46:30;;;;;;;10.17;3.50;;;;;;;;;;5029664;28;20173;-78
2023/05/18 05:48:56;;;;;;;16.77;3.63;;;;;;;;;;5013301;28;20181;-78
2023/05/18 05:51:22;;;;;;;11.00;3.70;;;;;;;;;;4990446;28;20411;-78
2023/05/18 05:53:48;;;;;;;8.33;3.17;;;;;;;;;;5012480;28;20176;-78
2023/05/18 05:56:15;;;;;;;13.73;3.97;;;;;;;;;;5015168;28;20173;-78
2023/05/18 05:58:41;;;;;;;13.35;4.00;;;;;;;;;;4996469;28;20430;-78
2023/05/18 06:01:07;;;;;;;10.75;3.55;;;;;;;;;;4990710;28;20425;-79
2023/05/18 06:03:33;;;;;;;13.63;3.65;;;;;;;;;;5018374;28;20427;-79
2023/05/18 06:05:59;;;;;;;12.52;3.80;;;;;;;;;;5029098;28;20431;-78
2023/05/18 06:08:25;;;;;;;10.75;3.80;;;;;;;;;;5030504;28;20439;-78
2023/05/18 06:10:51;;;;;;;10.43;3.60;;;;;;;;;;5012073;28;20430;-79
2023/05/18 06:13:17;;;;;;;14.18;4.13;;;;;;;;;;5015884;28;20413;-78
2023/05/18 06:15:43;;;;;;;13.07;4.03;;;;;;;;;;5028895;28;20438;-78
2023/05/18 06:18:10;;;;;;;11.43;4.13;;;;;;;;;;5012464;28;20427;-78
2023/05/18 06:20:36;;;;;;;12.15;3.80;;;;;;;;;;4998385;28;20407;-78
2023/05/18 06:23:02;;;;;;;11.00;3.63;;;;;;;;;;5010117;28;20403;-79
2023/05/18 06:25:28;;;;;;;18.00;4.10;;;;;;;;;;5007073;28;20461;-81
2023/05/18 06:27:54;;;;;;;14.13;4.10;;;;;;;;;;5026042;28;20449;-81
2023/05/18 06:30:20;;;;;;;11.57;3.80;;;;;;;;;;5018753;28;20452;-81
2023/05/18 06:32:46;;;;;;;10.73;3.72;;;;;;;;;;5008471;28;20412;-81
2023/05/18 06:35:12;;;;;;;11.05;3.85;;;;;;;;;;5008543;28;20496;-81
2023/05/18 06:37:38;;;;;;;10.00;3.53;;;;;;;;;;5023876;28;20448;-81
2023/05/18 06:40:06;;;;;;;7.80;3.17;;;;;;;;;;5021605;28;20173;-81
2023/05/18 06:42:32;;;;;;;11.63;4.10;;;;;;;;;;5025562;28;20400;-82
2023/05/18 06:44:58;;;;;;;10.23;3.40;;;;;;;;;;5006539;28;20177;-82
2023/05/18 06:47:24;;;;;;;13.07;3.70;;;;;;;;;;5040363;28;20189;-82
2023/05/18 06:49:50;;;;;;;11.25;3.75;;;;;;;;;;4998158;28;20406;-82
2023/05/18 06:52:16;;;;;;;12.30;3.50;;;;;;;;;;5015290;28;20402;-82
2023/05/18 06:54:42;;;;;;;13.68;3.72;;;;;;;;;;5015001;28;20500;-82
2023/05/18 06:57:08;;;;;;;10.27;3.50;;;;;;;;;;5014476;28;20508;-82
2023/05/18 06:59:34;;;;;;;14.05;3.60;;;;;;;;;;5015302;28;20398;-82
2023/05/18 07:02:00;;;;;;;11.57;3.53;;;;;;;;;;5015090;28;20408;-82
2023/05/18 07:04:26;;;;;;;11.95;3.45;;;;;;;;;;5014812;28;20455;-81
2023/05/18 07:06:54;;;;;;;9.75;3.83;;;;;;;;;;4998623;28;20409;-80
2023/05/18 07:09:21;;;;;;;10.20;3.80;;;;;;;;;;4998726;28;20410;-83
2023/05/18 07:11:47;;;;;;;10.48;3.78;;;;;;;;;;5019681;28;20472;-82
2023/05/18 07:14:13;;;;;;;12.20;3.72;;;;;;;;;;5020296;28;20414;-91
2023/05/18 07:16:39;;;;;;;12.48;3.55;;;;;;;;;;5018166;28;20466;-90
2023/05/18 07:19:06;;;;;;;13.85;3.90;;;;;;;;;;5018774;28;20412;-90
2023/05/18 07:21:32;;;;;;;11.25;3.50;;;;;;;;;;5018257;28;20421;-90
2023/05/18 07:23:58;;;;;;;13.38;3.70;;;;;;;;;;5005247;28;20411;-90
2023/05/18 07:26:24;;;;;;;9.32;3.60;;;;;;;;;;5015299;28;20411;-90
2023/05/18 07:28:50;;;;;;;14.55;3.80;;;;;;;;;;5015436;28;20415;-90
2023/05/18 07:31:20;;;;;;;10.93;3.67;;;;;;;;;;4998840;28;20439;-78
2023/05/18 07:33:46;;;;;;;13.43;3.70;;;;;;;;;;5029617;28;20427;-78
2023/05/18 07:36:13;;;;;;;10.43;3.67;;;;;;;;;;5055649;28;20408;-78
2023/05/18 07:38:39;;;;;;;12.15;3.80;;;;;;;;;;5006107;28;20424;-78
2023/05/18 07:41:05;;;;;;;11.00;3.75;;;;;;;;;;5002118;28;20467;-78
2023/05/18 07:43:31;;;;;;;11.02;3.60;;;;;;;;;;5017963;28;20421;-78
2023/05/18 07:45:57;;;;;;;10.43;3.50;;;;;;;;;;5001384;28;20650;-78
2023/05/18 07:48:23;;;;;;;10.95;3.67;;;;;;;;;;5017776;28;20441;-90
2023/05/18 07:50:49;;;;;;;13.23;4.03;;;;;;;;;;5034771;28;20406;-91
2023/05/18 07:53:15;;;;;;;13.00;3.93;;;;;;;;;;5034964;28;20464;-90
2023/05/18 07:55:41;;;;;;;10.27;3.53;;;;;;;;;;5001516;28;20411;-90
2023/05/18 07:58:08;;;;;;;17.13;3.90;;;;;;;;;;4986486;28;20437;-90
2023/05/18 08:00:34;;;;;;;10.93;3.70;;;;;;;;;;5002348;28;20508;-90
2023/05/18 08:03:00;;;;;;;13.57;3.70;;;;;;;;;;5018023;28;20416;-90
2023/05/18 08:05:26;;;;;;;12.20;3.78;;;;;;;;;;5017808;28;20417;-83
2023/05/18 08:07:52;;;;;;;10.27;3.40;;;;;;;;;;5018103;28;20258;-83
2023/05/18 08:10:18;;;;;;;11.33;3.27;;;;;;;;;;5018814;28;20180;-83
2023/05/18 08:12:44;;;;;;;9.47;3.50;;;;;;;;;;4990068;28;20194;-83
2023/05/18 08:15:11;;;;;;;11.33;3.40;;;;;;;;;;5013974;28;20237;-83
2023/05/18 08:17:37;;;;;;;10.67;3.50;;;;;;;;;;5033009;28;21912;-83
2023/05/18 08:20:03;;;;;;;12.40;3.40;;;;;;;;;;5002106;28;20185;-90
2023/05/18 08:22:30;;;;;;;13.37;3.90;;;;;;;;;;5035448;28;20184;-83
2023/05/18 08:24:59;;;;;;;12.10;3.77;;;;;;;;;;5018683;28;20177;-83
2023/05/18 08:27:25;;;;;;;11.60;3.65;;;;;;;;;;5035084;28;20444;-83
2023/05/18 08:29:51;;;;;;;14.30;3.80;;;;;;;;;;5019746;28;20197;-83
2023/05/18 08:32:17;;;;;;;11.73;3.40;;;;;;;;;;4997321;28;20275;-83
2023/05/18 08:34:43;;;;;;;11.48;4.00;;;;;;;;;;5012126;28;20425;-83
2023/05/18 08:37:09;;;;;;;9.07;3.53;;;;;;;;;;5017929;28;20223;-83
2023/05/18 08:39:36;;;;;;;8.43;3.43;;;;;;;;;;5027870;28;20275;-81
2023/05/18 08:42:03;;;;;;;10.47;3.50;;;;;;;;;;5038433;28;20226;-81
2023/05/18 08:44:38;;;;;;;9.43;3.20;;;;;;;;;;5019200;28;20169;-81
2023/05/18 08:47:07;;;;;;;9.70;3.17;;;;;;;;;;4998328;28;20239;-81
2023/05/18 08:49:34;;;;;;;10.43;3.33;;;;;;;;;;5014042;28;20192;-81
2023/05/18 08:52:02;;;;;;;9.47;3.37;;;;;;;;;;5017059;28;20199;-81
2023/05/18 08:54:29;;;;;;;10.27;3.37;;;;;;;;;;5017600;28;20188;-83
2023/05/18 08:56:56;;;;;;;8.03;3.40;;;;;;;;;;5017266;28;20303;-82
2023/05/18 08:59:23;;;;;;;10.27;3.50;;;;;;;;;;5017529;28;20185;-83
2023/05/18 09:01:50;;;;;;;10.70;3.20;;;;;;;;;;5017224;28;20180;-83
2023/05/18 09:04:17;;;;;;;9.10;3.33;;;;;;;;;;5016918;28;20188;-83
2023/05/18 09:06:44;;;;;;;10.73;3.60;;;;;;;;;;5001437;28;20177;-83
2023/05/18 09:09:11;;;;;;;9.20;3.33;;;;;;;;;;5017704;28;20202;-83
2023/05/18 09:11:37;;;;;;;9.20;3.80;;;;;;;;;;5001260;28;20203;-82
2023/05/18 09:14:03;;;;;;;11.37;3.70;;;;;;;;;;5017046;28;20196;-81
2023/05/18 09:16:29;;;;;;;9.73;3.20;;;;;;;;;;5001008;28;20184;-81
2023/05/18 09:18:56;;;;;;;12.63;3.00;;;;;;;;;;4996737;28;20279;-81
2023/05/18 09:21:22;;;;;;;12.33;3.37;;;;;;;;;;4997587;28;20181;-81
2023/05/18 09:23:50;;;;;;;8.37;3.23;;;;;;;;;;5017044;28;20271;-81
2023/05/18 09:26:16;;;;;;;7.30;3.30;;;;;;;;;;5034733;28;20168;-81
2023/05/18 09:28:44;;;;;;;10.00;3.70;;;;;;;;;;5000024;28;20275;-79
2023/05/18 09:31:16;;;;;;;10.70;3.43;;;;;;;;;;5016669;28;20219;-79
2023/05/18 09:33:42;;;;;;;13.37;4.43;;;;;;;;;;5016604;28;20243;-79
2023/05/18 09:36:09;;;;;;;10.30;3.40;;;;;;;;;;4997558;28;20185;-79
2023/05/18 09:38:42;;;;;;;9.57;3.47;;;;;;;;;;5014025;28;20220;-79
2023/05/18 09:41:12;;;;;;;8.87;3.57;;;;;;;;;;5016291;28;20181;-79
2023/05/18 09:43:39;;;;;;;9.93;3.40;;;;;;;;;;5016791;28;20192;-80
2023/05/18 09:46:08;;;;;;;13.07;4.00;;;;;;;;;;5016490;28;20185;-83
2023/05/18 09:48:35;;;;;;;6.90;3.30;;;;;;;;;;5017228;28;20176;-83
2023/05/18 09:51:02;;;;;;;9.60;3.00;;;;;;;;;;5034120;28;20208;-83
2023/05/18 09:53:28;;;;;;;9.63;3.60;;;;;;;;;;5016861;28;20180;-83
2023/05/18 09:55:54;;;;;;;9.53;3.27;;;;;;;;;;4996390;28;20197;-83
2023/05/18 09:58:20;;;;;;;7.77;2.90;;;;;;;;;;4997121;28;20284;-83
2023/05/18 10:00:55;;;;;;;8.13;2.63;;;;;;;;;;5013537;28;20182;-80
2023/05/18 10:03:24;;;;;;;7.23;3.10;;;;;;;;;;5013682;28;20181;-79
2023/05/18 10:05:51;;;;;;;9.13;3.00;;;;;;;;;;5013674;28;20188;-80
2023/05/18 10:08:17;;;;;;;9.23;3.40;;;;;;;;;;5014387;28;20252;-80
2023/05/18 10:10:47;;;;;;;7.70;2.93;;;;;;;;;;5013315;28;20178;-80
2023/05/18 10:13:16;;;;;;;9.63;3.20;;;;;;;;;;5013178;28;20201;-80
2023/05/18 10:15:55;;;;;;;5.77;3.10;;;;;;;;;;5026271;28;20223;-80
2023/05/18 10:18:22;;;;;;;9.87;3.10;;;;;;;;;;5015988;28;20208;-82
2023/05/18 10:20:49;;;;;;;8.37;3.10;;;;;;;;;;5016317;28;20191;-82
2023/05/18 10:23:17;;;;;;;8.80;3.23;;;;;;;;;;5008291;28;20288;-82
2023/05/18 10:25:44;;;;;;;8.20;3.00;;;;;;;;;;4999990;28;20185;-82
2023/05/18 10:28:11;;;;;;;7.27;2.87;;;;;;;;;;5014037;28;20188;-82
2023/05/18 10:30:38;;;;;;;7.03;3.07;;;;;;;;;;5032616;28;20224;-82
2023/05/18 10:33:04;;;;;;;7.07;3.40;;;;;;;;;;5033744;28;20216;-82
2023/05/18 10:35:31;;;;;;;10.23;3.30;;;;;;;;;;5015146;28;20196;-82
2023/05/18 10:37:58;;;;;;;7.17;2.97;;;;;;;;;;5016196;28;20227;-82
2023/05/18 10:40:26;;;;;;;8.07;3.43;;;;;;;;;;5033624;28;20296;-79
2023/05/18 10:42:53;;;;;;;6.60;2.70;;;;;;;;;;5016006;28;20180;-80
2023/05/18 10:45:19;;;;;;;7.87;3.10;;;;;;;;;;5069334;23;20234;-80
2023/05/18 10:47:45;;;;;;;9.07;3.30;;;;;;;;;;5063656;28;20190;-80
2023/05/18 10:50:12;;;;;;;9.93;3.03;;;;;;;;;;5074739;28;20252;-80
2023/05/18 10:52:38;;;;;;;8.67;3.27;;;;;;;;;;5060056;28;20205;-80
2023/05/18 10:55:04;;;;;;;7.40;2.90;;;;;;;;;;5103431;28;20177;-80
2023/05/18 10:57:37;;;;;;;9.03;3.13;;;;;;;;;;5079816;28;20230;-81
2023/05/18 11:00:06;;;;;;;8.63;3.00;;;;;;;;;;5078882;28;20232;-78
2023/05/18 11:02:33;;;;;;;7.57;3.33;;;;;;;;;;5079055;28;20179;-78
2023/05/18 11:04:59;;;;;;;10.23;3.30;;;;;;;;;;5097324;28;20235;-78
2023/05/18 11:07:27;;;;;;;8.40;3.23;;;;;;;;;;5062995;28;20266;-80
2023/05/18 11:09:53;;;;;;;7.10;3.27;;;;;;;;;;5095779;28;20185;-81
2023/05/18 11:12:22;;;;;;;7.87;3.47;;;;;;;;;;5078980;28;20228;-80
2023/05/18 11:14:49;;;;;;;6.10;2.87;;;;;;;;;;5078857;28;20269;-81
2023/05/18 11:17:16;;;;;;;9.87;3.40;;;;;;;;;;5078038;28;20205;-80
2023/05/18 11:20:03;;;;;;;8.53;3.37;;;;;;;;;;5076827;28;20198;-80
2023/05/18 11:22:47;;;;;;;12.57;3.67;;;;;;;;;;5096980;28;20159;-81
2023/05/18 11:25:34;;;;;;;8.53;3.50;;;;;;;;;;5079124;28;20171;-88
2023/05/18 11:28:04;;;;;;;8.85;3.63;;;;;;;;;;5074838;28;20408;-90
2023/05/18 11:30:30;;;;;;;7.10;3.10;;;;;;;;;;5079157;28;20178;-88
2023/05/18 11:33:12;;;;;;;8.27;3.40;;;;;;;;;;5079066;28;20219;-88
2023/05/18 11:35:57;;;;;;;7.60;3.37;;;;;;;;;;5079302;28;20213;-88
2023/05/18 11:38:23;;;;;;;9.57;3.20;;;;;;;;;;5079395;28;20202;-88
2023/05/18 11:40:50;;;;;;;7.80;3.10;;;;;;;;;;5079439;28;20205;-78
2023/05/18 11:43:20;;;;;;;6.17;3.10;;;;;;;;;;5079062;28;20175;-78
2023/05/18 11:45:57;;;;;;;9.00;3.30;;;;;;;;;;5078766;28;20227;-78
2023/05/18 11:48:30;;;;;;;7.20;3.47;;;;;;;;;;5078674;28;20178;-78
2023/05/18 11:50:56;;;;;;;11.17;3.57;;;;;;;;;;5078863;28;20273;-78
2023/05/18 11:53:26;;;;;;;7.90;3.33;;;;;;;;;;5079040;28;20209;-79
2023/05/18 11:55:53;;;;;;;8.80;3.40;;;;;;;;;;5078265;28;20190;-78
2023/05/18 11:58:20;;;;;;;7.80;3.40;;;;;;;;;;5062092;28;20296;-82
2023/05/18 12:00:46;;;;;;;7.30;3.20;;;;;;;;;;5078923;28;20183;-82
2023/05/18 12:03:13;;;;;;;7.73;3.60;;;;;;;;;;5078428;28;20179;-82
2023/05/18 12:05:48;;;;;;;7.43;3.10;;;;;;;;;;5078830;28;20182;-82
2023/05/18 12:08:20;;;;;;;6.27;3.30;;;;;;;;;;5096378;28;20174;-81
2023/05/18 12:10:46;;;;;;;5.67;3.20;;;;;;;;;;5078640;28;20186;-82
2023/05/18 12:13:16;;;;;;;7.97;3.47;;;;;;;;;;5096229;28;20185;-82
2023/05/18 12:15:43;;;;;;;7.83;3.23;;;;;;;;;;5073961;28;20191;-80
2023/05/18 12:18:10;;;;;;;7.77;3.27;;;;;;;;;;5041797;28;20211;-80
2023/05/18 12:20:39;;;;;;;8.57;3.60;;;;;;;;;;5041900;28;20206;-80
2023/05/18 12:23:05;;;;;;;6.60;3.40;;;;;;;;;;5057959;28;20175;-80
2023/05/18 12:25:31;;;;;;;8.17;3.60;;;;;;;;;;5041524;28;20183;-80
2023/05/18 12:27:57;;;;;;;8.70;3.33;;;;;;;;;;5041516;28;20237;-80
2023/05/18 12:30:33;;;;;;;6.17;3.07;;;;;;;;;;5065792;28;20194;-80
2023/05/18 12:33:01;;;;;;;8.13;3.57;;;;;;;;;;5074372;28;20244;-80
2023/05/18 12:35:27;;;;;;;9.57;3.63;;;;;;;;;;5072322;28;20186;-80
2023/05/18 12:37:54;;;;;;;10.93;3.57;;;;;;;;;;5068738;28;20293;-80
2023/05/18 12:40:21;;;;;;;6.33;3.30;;;;;;;;;;5077578;28;20177;-80
2023/05/18 12:42:53;;;;;;;8.83;3.70;;;;;;;;;;5077799;28;20170;-80
2023/05/18 12:45:21;;;;;;;9.37;3.13;;;;;;;;;;5095323;28;20291;-81
2023/05/18 12:47:52;;;;;;;7.60;3.50;;;;;;;;;;5059322;28;20215;-78
2023/05/18 12:50:19;;;;;;;6.33;3.77;;;;;;;;;;5058027;28;20171;-79
2023/05/18 12:52:45;;;;;;;9.73;3.67;;;;;;;;;;5057618;28;20344;-79
2023/05/18 12:55:20;;;;;;;7.77;3.70;;;;;;;;;;5059213;28;20198;-78
2023/05/18 12:57:46;;;;;;;8.00;3.70;;;;;;;;;;5076958;28;20214;-79
2023/05/18 13:00:12;;;;;;;6.13;3.50;;;;;;;;;;5077005;28;20189;-78
2023/05/18 13:02:38;;;;;;;9.57;3.20;;;;;;;;;;5054772;28;20194;-79
2023/05/18 13:05:09;;;;;;;7.30;3.53;;;;;;;;;;5057218;28;20270;-88
2023/05/18 13:07:36;;;;;;;9.07;3.87;;;;;;;;;;5056866;28;20194;-88
2023/05/18 13:10:06;;;;;;;7.93;3.73;;;;;;;;;;5049659;28;20188;-88
2023/05/18 13:12:51;;;;;;;10.00;3.57;;;;;;;;;;5080311;28;20217;-88
2023/05/18 13:15:18;;;;;;;10.67;3.90;;;;;;;;;;5068492;28;20199;-87
2023/05/18 13:17:48;;;;;;;8.67;3.80;;;;;;;;;;5066236;28;20221;-88
2023/05/18 13:20:15;;;;;;;6.73;3.67;;;;;;;;;;5041090;28;20179;-87
2023/05/18 13:22:42;;;;;;;7.77;3.80;;;;;;;;;;5057933;28;20186;-79
2023/05/18 13:25:08;;;;;;;7.03;3.80;;;;;;;;;;5068333;28;20280;-78
2023/05/18 13:27:34;;;;;;;14.23;3.60;;;;;;;;;;5059938;28;20214;-79
2023/05/18 13:30:00;;;;;;;8.07;3.50;;;;;;;;;;5076513;28;20212;-78
2023/05/18 13:32:27;;;;;;;7.70;3.53;;;;;;;;;;5059859;28;20289;-78
2023/05/18 13:34:52;;;;;;;6.90;3.97;;;;;;;;;;5058706;28;20258;-78
2023/05/18 13:37:18;;;;;;;8.37;3.73;;;;;;;;;;5058837;28;20304;-88
2023/05/18 13:39:44;;;;;;;7.60;3.63;;;;;;;;;;5077587;28;20223;-88
2023/05/18 13:42:11;;;;;;;9.17;4.13;;;;;;;;;;5055937;28;20183;-79
2023/05/18 13:44:37;;;;;;;9.40;3.57;;;;;;;;;;5072574;28;20172;-79
2023/05/18 13:47:03;;;;;;;7.60;3.80;;;;;;;;;;5072963;28;20184;-79
2023/05/18 13:49:29;;;;;;;7.47;4.30;;;;;;;;;;5073168;28;20219;-78
2023/05/18 13:51:58;;;;;;;9.20;3.87;;;;;;;;;;5074169;28;20174;-78
2023/05/18 13:54:24;;;;;;;6.97;3.93;;;;;;;;;;5059281;28;20174;-80
2023/05/18 13:56:50;;;;;;;11.00;4.17;;;;;;;;;;5059392;28;20189;-80
2023/05/18 13:59:18;;;;;;;10.83;3.67;;;;;;;;;;5076149;28;20174;-80
2023/05/18 14:01:46;;;;;;;9.73;3.77;;;;;;;;;;5075451;28;20170;-81
2023/05/18 14:04:12;;;;;;;8.37;3.50;;;;;;;;;;5059505;28;20182;-81
2023/05/18 14:06:38;;;;;;;14.77;4.50;;;;;;;;;;5059147;28;20175;-81
2023/05/18 14:09:04;;;;;;;8.87;4.27;;;;;;;;;;5055198;28;20183;-80
2023/05/18 14:11:33;;;;;;;8.57;4.40;;;;;;;;;;5075473;28;20228;-88
2023/05/18 14:13:59;;;;;;;8.53;4.40;;;;;;;;;;5059273;28;20179;-88
2023/05/18 14:16:25;;;;;;;8.00;4.03;;;;;;;;;;5058556;28;20191;-88
2023/05/18 14:18:51;;;;;;;7.63;4.03;;;;;;;;;;5093979;28;20233;-88
2023/05/18 14:21:17;;;;;;;7.00;4.17;;;;;;;;;;5066048;28;20181;-88
2023/05/18 14:23:43;;;;;;;6.57;3.70;;;;;;;;;;5066695;28;20185;-88
2023/05/18 14:26:09;;;;;;;6.27;3.83;;;;;;;;;;5084400;28;20196;-89
2023/05/18 14:28:35;;;;;;;7.70;4.60;;;;;;;;;;5066772;28;20178;-80
2023/05/18 14:31:01;;;;;;;14.60;4.53;;;;;;;;;;5064990;28;20259;-80
2023/05/18 14:33:27;;;;;;;8.73;4.20;;;;;;;;;;5077633;28;20216;-80
2023/05/18 14:35:55;;;;;;;17.70;4.80;;;;;;;;;;5081494;28;20182;-80
2023/05/18 14:38:25;;;;;;;12.13;4.83;;;;;;;;;;5061839;28;20214;-80